Time;durP1;ratioP1;P1;durP2;ratioP2;P2;SDS_P1;SDS_P2;PMS_P1;PMS_P2;Temp;Humidity;BMP_temperature;BMP_pressure;BME280_temperature;BME280_humidity;BME280_pressure;Samples;Min_cycle;Max_cycle;Signal;HPM_P1;HPM_P2
2022/07/30 00:00:06;;;;;;;4.35;1.38;;;28.40;99.90;;;;;;5035547;22;20478;-55
2022/07/30 00:02:32;;;;;;;2.95;1.35;;;28.30;99.90;;;;;;5005008;28;20032;-57
2022/07/30 00:04:58;;;;;;;4.38;1.58;;;28.30;99.90;;;;;;5009069;28;20464;-57
2022/07/30 00:07:23;;;;;;;3.08;1.60;;;28.30;99.90;;;;;;5010352;28;20068;-55
2022/07/30 00:09:49;;;;;;;4.85;1.52;;;28.30;99.90;;;;;;5009936;28;20057;-60
2022/07/30 00:12:15;;;;;;;2.45;1.00;;;28.40;99.90;;;;;;5009460;28;20457;-56
2022/07/30 00:14:41;;;;;;;2.58;1.30;;;28.40;99.90;;;;;;5010859;28;20033;-59
2022/07/30 00:17:06;;;;;;;3.58;1.20;;;28.40;99.90;;;;;;5011528;28;20022;-61
2022/07/30 00:19:32;;;;;;;3.25;0.90;;;28.40;99.90;;;;;;5011980;28;20022;-58
2022/07/30 00:21:58;;;;;;;4.50;1.52;;;28.40;99.90;;;;;;5014179;28;20026;-59
2022/07/30 00:24:24;;;;;;;3.03;1.20;;;28.40;99.90;;;;;;5013976;28;20386;-59
2022/07/30 00:26:49;;;;;;;4.50;1.63;;;28.40;99.90;;;;;;5019480;28;20026;-55
2022/07/30 00:29:15;;;;;;;3.60;1.48;;;28.40;99.90;;;;;;5011958;28;20026;-57
2022/07/30 00:31:41;;;;;;;3.03;0.82;;;28.40;99.90;;;;;;5012531;28;20056;-57
2022/07/30 00:34:07;;;;;;;3.92;1.20;;;28.40;99.90;;;;;;5011566;28;20055;-60
2022/07/30 00:36:32;;;;;;;2.55;1.00;;;28.40;99.90;;;;;;5013729;28;20018;-54
2022/07/30 00:38:58;;;;;;;3.08;1.35;;;28.40;99.90;;;;;;5012963;28;20034;-55
2022/07/30 00:41:24;;;;;;;7.57;1.27;;;28.40;99.90;;;;;;5000033;28;20021;-55
2022/07/30 00:43:50;;;;;;;4.32;1.13;;;28.40;99.90;;;;;;5014079;28;20026;-54
2022/07/30 00:46:16;;;;;;;2.08;1.10;;;28.40;99.90;;;;;;5013709;28;20018;-54
2022/07/30 00:48:42;;;;;;;1.52;1.35;;;28.30;99.90;;;;;;5011764;28;20080;-54
2022/07/30 00:51:08;;;;;;;3.28;1.40;;;28.30;99.90;;;;;;5012458;28;20088;-55
2022/07/30 00:53:34;;;;;;;4.00;1.48;;;28.40;99.90;;;;;;5013121;28;20029;-54
2022/07/30 00:56:00;;;;;;;5.90;1.20;;;28.40;99.90;;;;;;5012433;28;20033;-55
2022/07/30 00:58:26;;;;;;;3.33;1.00;;;28.40;99.90;;;;;;5013370;28;20022;-55
2022/07/30 01:00:52;;;;;;;11.25;1.45;;;28.40;99.90;;;;;;5013877;28;20060;-54
2022/07/30 01:03:18;;;;;;;2.95;1.05;;;28.40;99.90;;;;;;5013452;28;20053;-55
2022/07/30 01:05:44;;;;;;;5.72;2.13;;;28.40;99.90;;;;;;5012704;28;20030;-54
2022/07/30 01:08:10;;;;;;;3.78;1.33;;;28.50;99.90;;;;;;5011774;28;20497;-55
2022/07/30 01:10:36;;;;;;;3.45;0.88;;;28.50;99.90;;;;;;5012697;28;20367;-55
2022/07/30 01:13:03;;;;;;;3.78;1.00;;;28.50;99.90;;;;;;5012297;28;20037;-55
2022/07/30 01:15:29;;;;;;;3.83;1.30;;;28.50;99.90;;;;;;5013328;28;20122;-54
2022/07/30 01:17:59;;;;;;;5.32;0.90;;;28.50;99.90;;;;;;5012671;28;20026;-56
2022/07/30 01:21:03;;;;;;;5.43;1.50;;;28.60;99.90;;;;;;5013240;28;20498;-56
2022/07/30 01:23:40;;;;;;;5.50;1.45;;;28.60;99.90;;;;;;5012904;28;20061;-54
2022/07/30 01:26:07;;;;;;;;;;;28.60;99.90;;;;;;5013516;28;20033;-55
2022/07/30 01:28:39;;;;;;;4.57;1.02;;;28.60;99.90;;;;;;5013036;28;19909;-55
2022/07/30 01:31:07;;;;;;;3.88;1.38;;;28.60;99.90;;;;;;5011911;28;20087;-54
2022/07/30 01:33:36;;;;;;;3.50;0.93;;;28.60;99.90;;;;;;5012978;28;20018;-54
2022/07/30 01:36:02;;;;;;;4.07;1.65;;;28.60;99.90;;;;;;5012870;28;20045;-54
2022/07/30 01:38:30;;;;;;;2.25;1.02;;;28.70;99.90;;;;;;5012830;28;20026;-55
2022/07/30 01:40:57;;;;;;;3.70;1.30;;;28.70;99.90;;;;;;5012792;28;20049;-55
2022/07/30 01:43:24;;;;;;;2.30;1.00;;;28.70;99.90;;;;;;5012934;28;20109;-54
2022/07/30 01:45:50;;;;;;;;;;;28.70;99.90;;;;;;5013304;28;20030;-54
2022/07/30 01:48:20;;;;;;;3.25;1.00;;;28.70;99.90;;;;;;5011486;28;19905;-55
2022/07/30 01:50:50;;;;;;;3.17;1.05;;;28.70;99.90;;;;;;5012637;28;20025;-54
2022/07/30 01:53:20;;;;;;;3.83;1.02;;;28.70;99.90;;;;;;5012737;28;20018;-55
2022/07/30 01:55:47;;;;;;;2.55;0.90;;;28.70;99.90;;;;;;5012581;28;20057;-54
2022/07/30 01:58:15;;;;;;;4.18;1.35;;;28.70;99.90;;;;;;5012721;28;20030;-55
2022/07/30 02:00:43;;;;;;;2.83;0.85;;;28.70;99.90;;;;;;5034963;23;20503;-55
2022/07/30 02:03:10;;;;;;;2.25;1.05;;;28.70;99.90;;;;;;5032269;28;20033;-55
2022/07/30 02:05:37;;;;;;;1.98;0.93;;;28.70;99.90;;;;;;5032260;28;20034;-55
2022/07/30 02:08:10;;;;;;;3.50;1.15;;;28.70;99.90;;;;;;5032125;28;20187;-55
2022/07/30 02:10:47;;;;;;;3.50;0.98;;;28.70;99.90;;;;;;5032147;28;20031;-54
2022/07/30 02:13:26;;;;;;;1.10;0.90;;;28.70;99.90;;;;;;5032010;28;20108;-54
2022/07/30 02:16:01;;;;;;;3.45;1.17;;;28.70;99.90;;;;;;5032107;28;20476;-53
2022/07/30 02:18:44;;;;;;;3.88;1.10;;;28.70;99.90;;;;;;5031910;28;20029;-54
2022/07/30 02:21:12;;;;;;;5.40;1.92;;;28.70;99.90;;;;;;5031858;28;20032;-55
2022/07/30 02:23:42;;;;;;;5.72;1.45;;;28.70;99.90;;;;;;5031941;28;20350;-57
2022/07/30 02:26:14;;;;;;;6.07;3.10;;;28.70;99.90;;;;;;5031764;28;20030;-55
2022/07/30 02:28:42;;;;;;;3.83;1.30;;;28.70;99.90;;;;;;5031740;28;20056;-55
2022/07/30 02:31:10;;;;;;;3.05;1.20;;;28.70;99.90;;;;;;5031802;28;20092;-55
2022/07/30 02:33:37;;;;;;;;;;;28.70;99.90;;;;;;5032064;28;20025;-55
2022/07/30 02:36:06;;;;;;;3.22;1.15;;;28.70;99.90;;;;;;5031360;28;20330;-55
2022/07/30 02:38:34;;;;;;;5.45;1.23;;;28.70;99.90;;;;;;5031500;28;20021;-55
2022/07/30 02:41:01;;;;;;;7.10;1.48;;;28.70;99.90;;;;;;5031626;28;20030;-54
2022/07/30 02:43:29;;;;;;;3.15;1.23;;;28.70;99.90;;;;;;5031829;28;20610;-54
2022/07/30 02:45:56;;;;;;;3.53;1.42;;;28.70;99.90;;;;;;5031617;28;20033;-54
2022/07/30 02:48:26;;;;;;;5.78;1.70;;;28.70;99.90;;;;;;5031485;28;20049;-54
2022/07/30 02:50:54;;;;;;;8.27;2.05;;;28.70;99.90;;;;;;5031608;28;20034;-54
2022/07/30 02:53:22;;;;;;;5.53;2.10;;;28.70;99.90;;;;;;5031541;28;20369;-54
2022/07/30 02:55:49;;;;;;;9.30;2.20;;;28.60;99.90;;;;;;5031157;28;20021;-54
2022/07/30 02:58:19;;;;;;;7.28;1.63;;;28.60;99.90;;;;;;5031370;28;20057;-53
2022/07/30 03:00:46;;;;;;;5.15;1.85;;;28.70;99.90;;;;;;5033266;22;20064;-57
2022/07/30 03:03:13;;;;;;;6.10;2.00;;;28.60;99.90;;;;;;5026667;28;20040;-57
2022/07/30 03:10:52;;;;;;;8.00;2.00;;;28.60;99.90;;;;;;5253709;23;20094;-52
2022/07/30 03:13:20;;;;;;;5.93;1.60;;;28.60;99.90;;;;;;5011442;28;20164;-53
2022/07/30 03:15:48;;;;;;;7.40;2.50;;;28.60;99.90;;;;;;5011467;28;20033;-53
2022/07/30 03:18:17;;;;;;;5.30;2.30;;;28.60;99.90;;;;;;5011465;28;20025;-52
2022/07/30 03:20:50;;;;;;;6.57;2.00;;;28.50;99.90;;;;;;5011408;28;20034;-52
2022/07/30 03:23:18;;;;;;;3.78;1.70;;;28.60;99.90;;;;;;4993992;28;20021;-53
2022/07/30 03:25:58;;;;;;;7.85;2.15;;;28.60;99.90;;;;;;5011544;28;20030;-53
2022/07/30 03:28:25;;;;;;;12.50;2.60;;;28.60;99.90;;;;;;4995190;28;20030;-53
2022/07/30 03:30:52;;;;;;;3.85;1.75;;;28.60;99.90;;;;;;5011323;28;20052;-53
2022/07/30 03:33:19;;;;;;;9.52;1.95;;;28.60;99.90;;;;;;5011423;28;20037;-53
2022/07/30 03:35:46;;;;;;;3.60;2.10;;;28.60;99.90;;;;;;5011383;28;20041;-52
2022/07/30 03:38:16;;;;;;;4.43;1.80;;;28.50;99.90;;;;;;5011149;28;20270;-53
2022/07/30 03:40:43;;;;;;;6.32;2.42;;;28.60;99.90;;;;;;5011035;28;20030;-53
2022/07/30 03:43:11;;;;;;;4.85;1.88;;;28.50;99.90;;;;;;5011081;28;20038;-53
2022/07/30 03:45:40;;;;;;;5.13;1.83;;;28.60;99.90;;;;;;5003074;28;20038;-53
2022/07/30 03:48:08;;;;;;;5.07;1.95;;;28.50;99.90;;;;;;4991159;28;20034;-55
2022/07/30 03:50:35;;;;;;;4.43;1.73;;;28.50;99.90;;;;;;5011408;28;20369;-54
2022/07/30 03:53:05;;;;;;;;;;;28.50;99.90;;;;;;5014945;28;20026;-54
2022/07/30 03:55:31;;;;;;;8.48;1.88;;;28.50;99.90;;;;;;4996879;28;19967;-54
2022/07/30 03:57:58;;;;;;;4.93;1.90;;;28.50;99.90;;;;;;5014469;28;20485;-54
2022/07/30 04:00:24;;;;;;;4.60;1.85;;;28.50;99.90;;;;;;5014226;28;20468;-55
2022/07/30 04:02:50;;;;;;;3.72;2.17;;;28.50;99.90;;;;;;5015192;28;20377;-55
2022/07/30 04:05:16;;;;;;;4.60;1.98;;;28.50;99.90;;;;;;5014522;28;20037;-54
2022/07/30 04:07:41;;;;;;;4.53;1.80;;;28.50;99.90;;;;;;5014391;28;20411;-54
2022/07/30 04:10:08;;;;;;;4.63;1.67;;;28.60;99.90;;;;;;5014248;28;20133;-54
2022/07/30 04:12:34;;;;;;;9.65;1.70;;;28.60;99.90;;;;;;5014270;28;20022;-54
2022/07/30 04:15:00;;;;;;;5.28;1.60;;;28.60;99.90;;;;;;5014094;28;20050;-55
2022/07/30 04:17:40;;;;;;;3.42;1.30;;;28.60;99.90;;;;;;4996512;28;20022;-53
2022/07/30 04:20:22;;;;;;;3.25;1.23;;;28.60;99.90;;;;;;5004714;28;20038;-53
2022/07/30 04:22:49;;;;;;;5.57;1.50;;;28.60;99.90;;;;;;5013979;28;20132;-53
2022/07/30 04:25:15;;;;;;;4.65;2.05;;;28.50;99.90;;;;;;5014254;28;20504;-53
2022/07/30 04:27:41;;;;;;;3.92;1.30;;;28.50;99.90;;;;;;5014152;28;20120;-53
2022/07/30 04:30:08;;;;;;;5.70;1.77;;;28.50;99.90;;;;;;5013692;28;20096;-52
2022/07/30 04:32:34;;;;;;;3.50;1.42;;;28.50;99.90;;;;;;5014005;28;20026;-53
2022/07/30 04:35:02;;;;;;;2.93;1.30;;;28.50;99.90;;;;;;5013797;28;20433;-53
2022/07/30 04:37:27;;;;;;;;;;;28.50;99.90;;;;;;4996549;28;20802;-52
2022/07/30 04:39:56;;;;;;;6.40;1.55;;;28.50;99.90;;;;;;5012601;28;19997;-53
2022/07/30 04:42:23;;;;;;;3.90;1.35;;;28.60;99.90;;;;;;4995356;28;20545;-53
2022/07/30 04:44:48;;;;;;;8.30;1.73;;;28.60;99.90;;;;;;5013910;28;20029;-54
2022/07/30 04:47:15;;;;;;;4.88;1.40;;;28.50;99.90;;;;;;5013588;28;20109;-54
2022/07/30 04:49:42;;;;;;;3.90;1.50;;;28.50;99.90;;;;;;5013521;28;20026;-54
2022/07/30 04:52:09;;;;;;;7.30;2.00;;;28.50;99.90;;;;;;5013289;28;20022;-53
2022/07/30 04:54:49;;;;;;;6.70;1.77;;;28.60;99.90;;;;;;5013109;28;20042;-53
2022/07/30 04:57:17;;;;;;;3.95;1.60;;;28.60;99.90;;;;;;5000832;28;20022;-52
2022/07/30 04:59:43;;;;;;;4.88;1.38;;;28.60;99.90;;;;;;5012809;28;20022;-53
2022/07/30 05:02:10;;;;;;;4.20;1.80;;;28.60;99.90;;;;;;5013177;28;20029;-52
2022/07/30 05:04:38;;;;;;;9.85;1.70;;;28.60;99.90;;;;;;5013538;28;20018;-52
2022/07/30 05:07:05;;;;;;;3.65;1.42;;;28.60;99.90;;;;;;5013200;28;20116;-52
2022/07/30 05:09:32;;;;;;;6.72;1.80;;;28.60;99.90;;;;;;5013047;28;20042;-53
2022/07/30 05:11:58;;;;;;;3.65;1.50;;;28.60;99.90;;;;;;5013169;28;20485;-53
2022/07/30 05:14:25;;;;;;;5.28;1.38;;;28.60;99.90;;;;;;5010262;28;20101;-53
2022/07/30 05:16:52;;;;;;;5.20;2.35;;;28.60;99.90;;;;;;5002447;28;20025;-53
2022/07/30 05:19:18;;;;;;;5.38;1.50;;;28.60;99.90;;;;;;5013134;28;20022;-53
2022/07/30 05:21:44;;;;;;;6.80;1.77;;;28.60;99.90;;;;;;5012953;28;20034;-53
2022/07/30 05:24:10;;;;;;;3.30;1.45;;;28.60;99.90;;;;;;5012920;28;20505;-53
2022/07/30 05:26:36;;;;;;;4.68;1.73;;;28.60;99.90;;;;;;4993473;28;20036;-53
2022/07/30 05:29:02;;;;;;;13.43;2.70;;;28.70;99.90;;;;;;5012895;28;20377;-53
2022/07/30 05:31:28;;;;;;;6.05;1.95;;;28.70;99.90;;;;;;5012739;28;20049;-53
2022/07/30 05:33:54;;;;;;;5.43;1.88;;;28.70;99.90;;;;;;5012739;28;20485;-53
2022/07/30 05:36:20;;;;;;;4.13;2.33;;;28.70;99.90;;;;;;5012880;28;20105;-53
2022/07/30 05:38:46;;;;;;;6.70;1.80;;;28.70;99.90;;;;;;5012456;28;20101;-53
2022/07/30 05:41:12;;;;;;;5.33;2.13;;;28.70;99.90;;;;;;5012510;28;20033;-53
2022/07/30 05:43:38;;;;;;;7.30;2.00;;;28.70;99.90;;;;;;5012652;28;20026;-52
2022/07/30 05:46:03;;;;;;;7.88;2.17;;;28.70;99.90;;;;;;5012405;28;20041;-52
2022/07/30 05:48:33;;;;;;;4.90;2.47;;;28.70;99.90;;;;;;5012263;28;20028;-53
2022/07/30 05:51:00;;;;;;;2.92;1.75;;;28.70;99.90;;;;;;5012567;28;20030;-53
2022/07/30 05:53:27;;;;;;;4.85;2.10;;;28.70;99.90;;;;;;5012235;28;20025;-53
2022/07/30 05:55:53;;;;;;;4.80;1.85;;;28.70;99.90;;;;;;5012391;28;20042;-53
2022/07/30 05:58:19;;;;;;;5.43;1.95;;;28.70;99.90;;;;;;5012243;28;20025;-53
2022/07/30 06:00:45;;;;;;;5.18;2.20;;;28.70;99.90;;;;;;5012201;28;20437;-53
2022/07/30 06:03:11;;;;;;;8.75;3.05;;;28.80;99.90;;;;;;5012066;28;20018;-53
2022/07/30 06:05:37;;;;;;;5.30;2.28;;;28.80;99.90;;;;;;5012160;28;20064;-53
2022/07/30 06:08:03;;;;;;;11.18;2.90;;;28.80;99.90;;;;;;5011975;28;20054;-53
2022/07/30 06:10:29;;;;;;;5.47;2.70;;;28.80;99.90;;;;;;5011929;28;20393;-53
2022/07/30 06:12:55;;;;;;;8.38;3.20;;;28.80;99.90;;;;;;5011676;28;20011;-54
2022/07/30 06:15:21;;;;;;;9.70;3.97;;;28.80;99.90;;;;;;5011884;28;20041;-54
2022/07/30 06:17:47;;;;;;;5.80;3.50;;;28.90;99.90;;;;;;5011944;28;20030;-54
2022/07/30 06:20:15;;;;;;;8.55;4.30;;;28.90;99.90;;;;;;5012019;28;20030;-52
2022/07/30 06:22:41;;;;;;;12.95;4.78;;;28.90;99.90;;;;;;4994136;28;20021;-54
2022/07/30 06:25:08;;;;;;;9.95;5.53;;;28.90;99.90;;;;;;5011720;28;20054;-53
2022/07/30 06:27:35;;;;;;;13.13;5.50;;;28.90;99.90;;;;;;5012021;28;20040;-54
2022/07/30 06:30:08;;;;;;;6.25;3.72;;;29.00;99.90;;;;;;5011540;28;20129;-54
2022/07/30 06:32:34;;;;;;;10.30;5.65;;;29.00;99.90;;;;;;5011527;28;20033;-54
2022/07/30 06:35:01;;;;;;;9.27;4.82;;;29.00;99.90;;;;;;5011704;28;20041;-53
2022/07/30 06:37:26;;;;;;;11.43;4.80;;;29.00;99.90;;;;;;5011632;28;20521;-53
2022/07/30 06:39:52;;;;;;;5.88;4.13;;;29.10;99.90;;;;;;5011702;28;20105;-52
2022/07/30 06:42:18;;;;;;;7.65;4.57;;;29.10;99.90;;;;;;5011525;28;20068;-52
2022/07/30 06:44:44;;;;;;;9.43;5.13;;;29.10;99.90;;;;;;5011335;28;20095;-52
2022/07/30 06:47:10;;;;;;;14.05;5.50;;;29.10;99.90;;;;;;5011589;28;20485;-53
2022/07/30 06:49:36;;;;;;;9.43;4.75;;;29.00;99.90;;;;;;5011420;28;20030;-53
2022/07/30 06:52:03;;;;;;;16.02;6.10;;;29.10;99.90;;;;;;4990595;28;20113;-53
2022/07/30 06:54:29;;;;;;;12.52;5.85;;;29.10;99.90;;;;;;5005160;28;20026;-53
2022/07/30 06:56:55;;;;;;;14.93;6.07;;;29.10;99.90;;;;;;4993921;28;20485;-53
2022/07/30 06:59:21;;;;;;;9.30;6.55;;;29.10;99.90;;;;;;5011393;28;20029;-53
2022/07/30 07:01:46;;;;;;;14.63;6.75;;;29.10;99.90;;;;;;5011083;28;20065;-53
2022/07/30 07:04:12;;;;;;;11.70;7.22;;;29.10;99.90;;;;;;5011354;28;20022;-54
2022/07/30 07:06:38;;;;;;;9.35;5.13;;;29.20;99.90;;;;;;5011250;28;20493;-53
2022/07/30 07:09:04;;;;;;;10.07;4.90;;;29.20;99.90;;;;;;5010789;28;20026;-53
2022/07/30 07:11:31;;;;;;;11.63;6.38;;;29.20;99.90;;;;;;5011300;28;20037;-54
2022/07/30 07:13:57;;;;;;;11.45;6.32;;;29.20;99.90;;;;;;5011149;28;20026;-54
2022/07/30 07:16:25;;;;;;;11.38;5.68;;;29.20;99.90;;;;;;5010869;28;20041;-54
2022/07/30 07:18:52;;;;;;;9.10;6.00;;;29.20;99.90;;;;;;4993663;28;20071;-54
2022/07/30 07:21:18;;;;;;;13.32;6.13;;;29.20;99.90;;;;;;4993375;28;20034;-55
2022/07/30 07:23:44;;;;;;;11.45;6.15;;;29.30;99.90;;;;;;5013559;28;20018;-54
2022/07/30 07:26:10;;;;;;;24.02;6.30;;;29.20;99.90;;;;;;5015020;28;20044;-54
2022/07/30 07:28:36;;;;;;;13.35;6.78;;;29.30;99.90;;;;;;5015078;28;20026;-53
2022/07/30 07:31:02;;;;;;;19.42;7.25;;;29.30;99.90;;;;;;5014951;28;20104;-54
2022/07/30 07:33:28;;;;;;;16.98;7.18;;;29.30;99.90;;;;;;5014960;28;20057;-54
2022/07/30 07:35:54;;;;;;;11.18;5.97;;;29.30;99.90;;;;;;5014766;28;20022;-54
2022/07/30 07:38:20;;;;;;;8.13;5.45;;;29.30;99.90;;;;;;5014832;28;20032;-54
2022/07/30 07:40:46;;;;;;;12.45;6.80;;;29.30;99.90;;;;;;5014755;28;20354;-54
2022/07/30 07:43:13;;;;;;;15.50;8.27;;;29.30;99.90;;;;;;5014698;28;20428;-54
2022/07/30 07:45:40;;;;;;;9.45;5.60;;;29.30;99.90;;;;;;5014386;28;20033;-54
2022/07/30 07:48:06;;;;;;;;;;;29.30;99.90;;;;;;5015043;28;20022;-53
2022/07/30 07:50:32;;;;;;;7.78;5.35;;;29.30;99.90;;;;;;4996768;28;20099;-54
2022/07/30 07:52:58;;;;;;;15.65;5.93;;;29.30;99.90;;;;;;4996722;28;20504;-54
2022/07/30 07:55:24;;;;;;;19.45;6.93;;;29.30;99.90;;;;;;5000665;28;20037;-54
2022/07/30 07:57:50;;;;;;;14.82;7.25;;;29.30;99.90;;;;;;4997014;28;20022;-54
2022/07/30 08:00:16;;;;;;;17.77;6.78;;;29.30;99.90;;;;;;5014431;28;20022;-54
2022/07/30 08:02:43;;;;;;;11.70;6.93;;;29.40;99.90;;;;;;5014234;28;20022;-54
2022/07/30 08:05:11;;;;;;;15.55;6.45;;;29.40;99.90;;;;;;5014398;28;20037;-54
2022/07/30 08:07:38;;;;;;;15.63;6.75;;;29.40;99.90;;;;;;5013991;28;20362;-54
2022/07/30 08:10:05;;;;;;;15.95;7.28;;;29.40;99.90;;;;;;5013938;28;20497;-54
2022/07/30 08:12:31;;;;;;;14.45;7.70;;;29.40;99.90;;;;;;5014308;28;20101;-54
2022/07/30 08:14:57;;;;;;;14.75;7.20;;;29.40;99.90;;;;;;4996408;28;20184;-54
2022/07/30 08:17:23;;;;;;;13.20;7.00;;;29.50;99.90;;;;;;5014102;28;20026;-54
2022/07/30 08:19:49;;;;;;;14.82;6.47;;;29.50;99.90;;;;;;5014021;28;20026;-54
2022/07/30 08:22:15;;;;;;;14.00;8.05;;;29.50;99.90;;;;;;5013905;28;20022;-54
2022/07/30 08:24:41;;;;;;;21.90;8.15;;;29.50;99.90;;;;;;4996517;28;20032;-54
2022/07/30 08:27:07;;;;;;;18.05;9.20;;;29.50;99.90;;;;;;5013756;28;20025;-55
2022/07/30 08:29:34;;;;;;;14.73;8.95;;;29.50;99.90;;;;;;5014089;28;20082;-54
2022/07/30 08:32:00;;;;;;;;;;;29.60;99.90;;;;;;5001444;28;20030;-54
2022/07/30 08:34:27;;;;;;;19.95;10.45;;;29.60;99.90;;;;;;4997219;28;19921;-54
2022/07/30 08:36:53;;;;;;;16.65;9.90;;;29.60;99.90;;;;;;5013849;28;20018;-54
2022/07/30 08:39:18;;;;;;;32.25;11.10;;;29.50;99.90;;;;;;5013544;28;20076;-53
2022/07/30 08:41:45;;;;;;;17.75;9.05;;;29.50;99.90;;;;;;5013631;28;20026;-52
2022/07/30 08:44:11;;;;;;;18.83;9.88;;;29.50;99.90;;;;;;4999169;28;20476;-52
2022/07/30 08:46:42;;;;;;;20.97;10.07;;;29.50;99.90;;;;;;4994098;28;20073;-52
2022/07/30 08:49:11;;;;;;;14.02;9.30;;;29.50;99.90;;;;;;4993665;28;20049;-52
2022/07/30 08:51:38;;;;;;;14.40;8.60;;;29.40;99.90;;;;;;4993012;28;20346;-54
2022/07/30 08:54:05;;;;;;;23.95;13.60;;;29.40;99.90;;;;;;4993727;28;20065;-53
2022/07/30 08:56:32;;;;;;;16.60;9.65;;;29.40;99.90;;;;;;5004835;28;20520;-53
2022/07/30 08:58:59;;;;;;;15.75;9.82;;;29.40;99.90;;;;;;5013188;28;20069;-53
2022/07/30 09:01:25;;;;;;;;;;;29.40;99.90;;;;;;5013206;28;20030;-53
2022/07/30 09:03:51;;;;;;;17.58;9.77;;;29.40;99.90;;;;;;5012208;28;19976;-53
2022/07/30 09:06:17;;;;;;;14.70;9.10;;;29.50;99.90;;;;;;5013310;28;20041;-50
2022/07/30 09:08:42;;;;;;;18.83;9.48;;;29.40;99.90;;;;;;5013088;28;20029;-49
2022/07/30 09:11:09;;;;;;;18.15;8.90;;;29.50;99.90;;;;;;5012879;28;20038;-49
2022/07/30 09:13:36;;;;;;;17.00;8.32;;;29.50;99.90;;;;;;5011564;28;20394;-50
2022/07/30 09:16:04;;;;;;;17.52;10.13;;;29.50;99.90;;;;;;4999092;28;20030;-49
2022/07/30 09:18:36;;;;;;;17.30;8.88;;;29.50;99.90;;;;;;4992241;28;20018;-48
2022/07/30 09:21:23;;;;;;;14.38;8.88;;;29.50;99.90;;;;;;5001481;28;20036;-50
2022/07/30 09:23:59;;;;;;;;;;;29.60;99.90;;;;;;4992583;28;20022;-50
2022/07/30 09:26:25;;;;;;;21.35;8.38;;;29.60;99.90;;;;;;4975197;28;20404;-50
2022/07/30 09:28:51;;;;;;;19.33;8.82;;;29.60;99.90;;;;;;4992089;28;20022;-50
2022/07/30 09:31:20;;;;;;;16.10;8.27;;;29.70;99.90;;;;;;4991998;28;20022;-50
2022/07/30 09:33:46;;;;;;;19.77;8.65;;;29.60;99.90;;;;;;5000146;28;20030;-50
2022/07/30 09:36:14;;;;;;;19.05;9.18;;;29.70;99.90;;;;;;5005925;28;20025;-50
2022/07/30 09:38:47;;;;;;;15.80;8.38;;;29.60;99.90;;;;;;5012264;28;20022;-50
2022/07/30 09:41:15;;;;;;;19.90;10.93;;;29.70;99.90;;;;;;5012521;28;20065;-50
2022/07/30 09:43:49;;;;;;;20.13;10.27;;;29.70;99.90;;;;;;4994795;28;20087;-51
2022/07/30 09:46:15;;;;;;;14.90;8.23;;;29.70;99.90;;;;;;5011202;28;20377;-50
2022/07/30 09:48:42;;;;;;;20.88;10.00;;;29.60;99.90;;;;;;4991527;28;20022;-50
2022/07/30 09:51:08;;;;;;;19.40;9.32;;;29.60;99.90;;;;;;5011663;28;20033;-50
2022/07/30 09:53:34;;;;;;;16.10;8.73;;;29.60;99.90;;;;;;4994830;28;20373;-50
2022/07/30 09:56:20;;;;;;;18.95;9.30;;;29.60;99.90;;;;;;5012557;28;20034;-49
2022/07/30 09:58:47;;;;;;;24.27;10.90;;;29.70;99.90;;;;;;5012124;28;20049;-50
2022/07/30 10:01:13;;;;;;;14.95;8.70;;;29.70;99.90;;;;;;5012050;28;20430;-50
2022/07/30 10:03:42;;;;;;;13.55;8.32;;;29.70;99.90;;;;;;5011997;28;20148;-50
2022/07/30 10:06:08;;;;;;;14.45;8.48;;;29.70;99.90;;;;;;5012039;28;20028;-50
2022/07/30 10:08:51;;;;;;;18.02;8.02;;;29.70;99.90;;;;;;5012253;28;20490;-50
2022/07/30 10:11:21;;;;;;;17.15;8.68;;;29.80;99.90;;;;;;5011900;28;20072;-50
2022/07/30 10:13:49;;;;;;;16.40;8.40;;;29.80;99.90;;;;;;5011867;28;20657;-50
2022/07/30 10:16:15;;;;;;;;;;;29.80;99.90;;;;;;5012201;28;20022;-49
2022/07/30 10:18:44;;;;;;;16.50;8.27;;;29.90;99.90;;;;;;5011814;28;19992;-50
2022/07/30 10:21:11;;;;;;;15.07;8.20;;;29.90;99.90;;;;;;5012018;28;20034;-50
2022/07/30 10:23:38;;;;;;;17.88;9.27;;;29.90;99.90;;;;;;5011631;28;20022;-50
2022/07/30 10:26:06;;;;;;;16.88;8.02;;;30.00;99.90;;;;;;5011895;28;20065;-49
2022/07/30 10:28:32;;;;;;;15.57;7.90;;;30.00;99.90;;;;;;5011841;28;20026;-49
2022/07/30 10:30:58;;;;;;;20.60;8.65;;;30.10;99.90;;;;;;5011399;28;20087;-49
2022/07/30 10:33:26;;;;;;;22.27;9.07;;;30.20;99.90;;;;;;5011702;28;20026;-48
2022/07/30 10:35:52;;;;;;;21.52;8.25;;;30.20;99.90;;;;;;5011462;28;20391;-49
2022/07/30 10:38:21;;;;;;;12.85;7.75;;;30.20;99.90;;;;;;5011559;28;20018;-50
2022/07/30 10:41:00;;;;;;;14.98;9.10;;;30.10;99.90;;;;;;5011529;28;20022;-50
2022/07/30 10:43:59;;;;;;;22.25;8.27;;;30.10;99.90;;;;;;5011693;28;20165;-50
2022/07/30 10:46:58;;;;;;;23.17;7.90;;;30.10;99.90;;;;;;5011248;28;20042;-49
2022/07/30 10:49:24;;;;;;;19.65;7.88;;;30.20;99.90;;;;;;4993682;28;20026;-49
2022/07/30 10:51:53;;;;;;;11.85;6.78;;;30.20;99.90;;;;;;5011265;28;20224;-50
2022/07/30 10:54:40;;;;;;;12.88;6.82;;;30.30;99.90;;;;;;5011252;28;20030;-50
2022/07/30 10:57:12;;;;;;;;;;;30.40;99.90;;;;;;5011418;28;20021;-49
2022/07/30 10:59:57;;;;;;;15.00;7.00;;;30.40;99.90;;;;;;5011106;28;20384;-50
2022/07/30 11:02:24;;;;;;;14.13;6.88;;;30.40;99.90;;;;;;5011344;28;20080;-50
2022/07/30 11:05:28;;;;;;;15.00;7.55;;;30.50;99.90;;;;;;5011246;28;20018;-50
2022/07/30 11:07:54;;;;;;;13.90;7.35;;;30.60;99.90;;;;;;5011103;28;20048;-50
2022/07/30 11:10:40;;;;;;;20.40;7.35;;;30.50;99.90;;;;;;4993541;28;20054;-50
2022/07/30 11:13:07;;;;;;;13.60;7.20;;;30.60;99.90;;;;;;4982126;28;20072;-50
2022/07/30 11:15:53;;;;;;;22.48;10.75;;;30.70;99.90;;;;;;5011204;28;20029;-49
2022/07/30 11:18:19;;;;;;;14.60;7.88;;;30.60;99.90;;;;;;4998339;28;20041;-50
2022/07/30 11:21:15;;;;;;;15.38;7.03;;;30.70;99.90;;;;;;5011079;28;20030;-49
2022/07/30 11:23:42;;;;;;;16.20;6.97;;;30.70;99.90;;;;;;5011154;28;20036;-50
2022/07/30 11:26:08;;;;;;;12.98;6.07;;;30.70;99.90;;;;;;5011025;28;20409;-50
2022/07/30 11:28:44;;;;;;;15.05;6.95;;;30.70;99.90;;;;;;5011901;28;20080;-50
2022/07/30 11:31:32;;;;;;;18.92;8.02;;;30.70;99.90;;;;;;5011179;28;20045;-50
2022/07/30 11:34:17;;;;;;;17.00;7.22;;;30.70;99.90;;;;;;5011041;28;20037;-50
2022/07/30 11:37:16;;;;;;;12.63;7.63;;;30.70;99.90;;;;;;5011337;28;20018;-50
2022/07/30 11:39:57;;;;;;;14.18;6.30;;;30.70;99.90;;;;;;4988933;28;20042;-50
2022/07/30 11:42:30;;;;;;;15.93;7.32;;;30.70;99.90;;;;;;5011373;28;20421;-50
2022/07/30 11:45:15;;;;;;;13.25;7.15;;;30.60;99.90;;;;;;5011076;28;20117;-50
2022/07/30 11:47:45;;;;;;;16.88;6.78;;;30.60;99.90;;;;;;5011304;28;20429;-50
2022/07/30 11:50:24;;;;;;;14.32;6.63;;;30.60;99.90;;;;;;5011277;28;20072;-50
2022/07/30 11:52:52;;;;;;;18.08;8.23;;;30.60;99.90;;;;;;5010956;28;20046;-50
2022/07/30 11:55:26;;;;;;;13.40;6.40;;;30.60;99.90;;;;;;4990153;28;20054;-49
2022/07/30 11:57:57;;;;;;;12.15;6.15;;;30.60;99.90;;;;;;5002986;28;20037;-50
2022/07/30 12:00:23;;;;;;;14.50;6.85;;;30.60;99.90;;;;;;5011189;28;20105;-50
2022/07/30 12:02:49;;;;;;;16.93;7.67;;;30.60;99.90;;;;;;5011242;28;20025;-49
2022/07/30 12:05:22;;;;;;;13.77;6.10;;;30.60;99.90;;;;;;5010692;28;20026;-50
2022/07/30 12:07:48;;;;;;;13.00;6.30;;;30.60;99.90;;;;;;5010390;28;20072;-49
2022/07/30 12:10:18;;;;;;;12.30;6.80;;;30.70;99.90;;;;;;5011871;28;20050;-50
2022/07/30 12:12:45;;;;;;;11.82;6.40;;;30.70;99.90;;;;;;5014147;28;20029;-50
2022/07/30 12:15:28;;;;;;;14.40;6.50;;;30.70;99.90;;;;;;5013909;28;20490;-50
2022/07/30 12:17:53;;;;;;;15.25;7.18;;;30.70;99.90;;;;;;5013988;28;20028;-49
2022/07/30 12:20:20;;;;;;;16.15;7.18;;;30.70;99.90;;;;;;5013932;28;20032;-49
2022/07/30 12:22:46;;;;;;;13.93;6.13;;;30.70;99.90;;;;;;5013911;28;20473;-50
2022/07/30 12:25:13;;;;;;;16.70;6.80;;;30.70;99.90;;;;;;5013565;28;20048;-49
2022/07/30 12:27:44;;;;;;;17.13;6.95;;;30.70;99.90;;;;;;5013902;28;20376;-49
2022/07/30 12:30:10;;;;;;;16.20;6.93;;;30.70;99.90;;;;;;5013488;28;20034;-50
2022/07/30 12:32:36;;;;;;;15.18;7.30;;;30.80;99.90;;;;;;5013918;28;20037;-50
2022/07/30 12:35:02;;;;;;;18.05;7.93;;;30.80;99.90;;;;;;5013801;28;20034;-49
2022/07/30 12:37:28;;;;;;;18.58;7.57;;;30.80;99.90;;;;;;5013421;28;20022;-50
2022/07/30 12:40:09;;;;;;;16.20;7.28;;;30.90;99.90;;;;;;4995986;28;20377;-50
2022/07/30 12:42:35;;;;;;;15.18;6.50;;;30.90;99.90;;;;;;5013497;28;20025;-50
2022/07/30 12:45:01;;;;;;;16.40;6.50;;;31.00;99.90;;;;;;5013352;28;20033;-50
2022/07/30 12:47:29;;;;;;;13.82;6.53;;;31.00;99.90;;;;;;5013574;28;20826;-50
2022/07/30 12:49:57;;;;;;;12.45;6.35;;;31.00;99.90;;;;;;5013253;28;20029;-50
2022/07/30 12:52:31;;;;;;;11.35;5.85;;;31.00;99.90;;;;;;5013244;28;20110;-50
2022/07/30 12:55:07;;;;;;;10.88;5.88;;;31.10;99.90;;;;;;5013398;28;20103;-50
2022/07/30 12:58:06;;;;;;;19.08;6.35;;;31.00;99.90;;;;;;5013292;28;20177;-50